sensor_id;sensor_type;location;lat;lon;timestamp;pressure;altitude;pressure_sealevel;temperature
12918;BMP180;6526;54.312;13.092;2023-05-02T00:00:16;101689.00;;;14.40
12918;BMP180;6526;54.312;13.092;2023-05-02T00:02:42;101692.00;;;14.40
12918;BMP180;6526;54.312;13.092;2023-05-02T00:05:08;101695.00;;;14.30
12918;BMP180;6526;54.312;13.092;2023-05-02T00:07:34;101693.00;;;14.30
12918;BMP180;6526;54.312;13.092;2023-05-02T00:10:00;101687.00;;;14.20
12918;BMP180;6526;54.312;13.092;2023-05-02T00:12:30;101696.00;;;14.20
12918;BMP180;6526;54.312;13.092;2023-05-02T00:14:57;101690.00;;;14.10
12918;BMP180;6526;54.312;13.092;2023-05-02T00:17:23;101686.00;;;14.10
12918;BMP180;6526;54.312;13.092;2023-05-02T00:19:49;101696.00;;;14.00
12918;BMP180;6526;54.312;13.092;2023-05-02T00:22:15;101688.00;;;14.00
12918;BMP180;6526;54.312;13.092;2023-05-02T00:24:41;101688.00;;;14.00
12918;BMP180;6526;54.312;13.092;2023-05-02T00:27:07;101693.00;;;14.00
12918;BMP180;6526;54.312;13.092;2023-05-02T00:29:33;101692.00;;;13.90
12918;BMP180;6526;54.312;13.092;2023-05-02T00:31:59;101695.00;;;14.00
12918;BMP180;6526;54.312;13.092;2023-05-02T00:34:31;101687.00;;;13.80
12918;BMP180;6526;54.312;13.092;2023-05-02T00:36:58;101685.00;;;14.00
12918;BMP180;6526;54.312;13.092;2023-05-02T00:39:24;101681.00;;;13.90
12918;BMP180;6526;54.312;13.092;2023-05-02T00:41:56;101681.00;;;14.00
12918;BMP180;6526;54.312;13.092;2023-05-02T00:44:22;101685.00;;;14.00
12918;BMP180;6526;54.312;13.092;2023-05-02T00:46:49;101674.00;;;14.00
12918;BMP180;6526;54.312;13.092;2023-05-02T00:49:15;101682.00;;;14.00
12918;BMP180;6526;54.312;13.092;2023-05-02T00:51:41;101679.00;;;14.00
12918;BMP180;6526;54.312;13.092;2023-05-02T00:54:07;101674.00;;;14.00
12918;BMP180;6526;54.312;13.092;2023-05-02T00:56:33;101675.00;;;14.00
12918;BMP180;6526;54.312;13.092;2023-05-02T00:58:59;101673.00;;;14.00
12918;BMP180;6526;54.312;13.092;2023-05-02T01:09:49;101679.00;;;14.00
12918;BMP180;6526;54.312;13.092;2023-05-02T01:12:26;101683.00;;;14.00
12918;BMP180;6526;54.312;13.092;2023-05-02T01:14:56;101674.00;;;13.90
12918;BMP180;6526;54.312;13.092;2023-05-02T01:17:26;101667.00;;;13.90
12918;BMP180;6526;54.312;13.092;2023-05-02T01:19:59;101669.00;;;13.90
12918;BMP180;6526;54.312;13.092;2023-05-02T01:22:28;101673.00;;;13.90
12918;BMP180;6526;54.312;13.092;2023-05-02T01:25:19;101667.00;;;13.80
12918;BMP180;6526;54.312;13.092;2023-05-02T01:28:16;101668.00;;;13.70
12918;BMP180;6526;54.312;13.092;2023-05-02T01:30:46;101687.00;;;13.70
12918;BMP180;6526;54.312;13.092;2023-05-02T01:33:16;101674.00;;;13.70
12918;BMP180;6526;54.312;13.092;2023-05-02T01:35:43;101682.00;;;13.60
12918;BMP180;6526;54.312;13.092;2023-05-02T01:38:14;101674.00;;;13.50
12918;BMP180;6526;54.312;13.092;2023-05-02T01:40:43;101677.00;;;13.40
12918;BMP180;6526;54.312;13.092;2023-05-02T01:43:13;101681.00;;;13.50
12918;BMP180;6526;54.312;13.092;2023-05-02T01:45:42;101681.00;;;13.50
12918;BMP180;6526;54.312;13.092;2023-05-02T01:48:10;101686.00;;;13.40
12918;BMP180;6526;54.312;13.092;2023-05-02T01:50:38;101674.00;;;13.30
12918;BMP180;6526;54.312;13.092;2023-05-02T01:53:08;101682.00;;;13.30
12918;BMP180;6526;54.312;13.092;2023-05-02T01:55:38;101682.00;;;13.30
12918;BMP180;6526;54.312;13.092;2023-05-02T01:58:07;101685.00;;;13.20
12918;BMP180;6526;54.312;13.092;2023-05-02T02:00:33;101692.00;;;13.20
12918;BMP180;6526;54.312;13.092;2023-05-02T02:03:03;101682.00;;;13.10
12918;BMP180;6526;54.312;13.092;2023-05-02T02:05:30;101681.00;;;13.20
12918;BMP180;6526;54.312;13.092;2023-05-02T02:07:58;101685.00;;;13.20
12918;BMP180;6526;54.312;13.092;2023-05-02T02:10:26;101684.00;;;13.20
12918;BMP180;6526;54.312;13.092;2023-05-02T02:13:03;101686.00;;;13.20
12918;BMP180;6526;54.312;13.092;2023-05-02T02:15:34;101688.00;;;13.10
12918;BMP180;6526;54.312;13.092;2023-05-02T02:18:08;101687.00;;;13.10
12918;BMP180;6526;54.312;13.092;2023-05-02T02:20:35;101705.00;;;13.00
12918;BMP180;6526;54.312;13.092;2023-05-02T02:23:05;101692.00;;;13.10
12918;BMP180;6526;54.312;13.092;2023-05-02T02:25:33;101712.00;;;13.10
12918;BMP180;6526;54.312;13.092;2023-05-02T02:28:00;101702.00;;;13.10
12918;BMP180;6526;54.312;13.092;2023-05-02T02:30:26;101707.00;;;13.00
12918;BMP180;6526;54.312;13.092;2023-05-02T02:32:52;101712.00;;;13.00
12918;BMP180;6526;54.312;13.092;2023-05-02T02:35:19;101702.00;;;13.10
12918;BMP180;6526;54.312;13.092;2023-05-02T02:40:50;101728.00;;;13.00
12918;BMP180;6526;54.312;13.092;2023-05-02T02:43:49;101721.00;;;13.00
12918;BMP180;6526;54.312;13.092;2023-05-02T02:46:28;101728.00;;;13.00
12918;BMP180;6526;54.312;13.092;2023-05-02T02:49:05;101732.00;;;13.00
12918;BMP180;6526;54.312;13.092;2023-05-02T02:51:38;101735.00;;;12.90
12918;BMP180;6526;54.312;13.092;2023-05-02T02:54:34;101731.00;;;13.00
12918;BMP180;6526;54.312;13.092;2023-05-02T02:57:11;101741.00;;;13.00
12918;BMP180;6526;54.312;13.092;2023-05-02T02:59:46;101702.00;;;13.00
12918;BMP180;6526;54.312;13.092;2023-05-02T03:02:16;101758.00;;;12.90
12918;BMP180;6526;54.312;13.092;2023-05-02T03:04:44;101760.00;;;12.90
12918;BMP180;6526;54.312;13.092;2023-05-02T03:07:11;101764.00;;;13.00
12918;BMP180;6526;54.312;13.092;2023-05-02T03:09:45;101710.00;;;13.10
12918;BMP180;6526;54.312;13.092;2023-05-02T03:12:12;101767.00;;;13.10
12918;BMP180;6526;54.312;13.092;2023-05-02T03:14:39;101765.00;;;13.00
12918;BMP180;6526;54.312;13.092;2023-05-02T03:17:05;101768.00;;;13.00
12918;BMP180;6526;54.312;13.092;2023-05-02T03:19:33;101772.00;;;13.20
12918;BMP180;6526;54.312;13.092;2023-05-02T03:21:59;101763.00;;;13.20
12918;BMP180;6526;54.312;13.092;2023-05-02T03:24:25;101769.00;;;13.30
12918;BMP180;6526;54.312;13.092;2023-05-02T03:26:57;101756.00;;;13.30
12918;BMP180;6526;54.312;13.092;2023-05-02T03:29:24;101760.00;;;13.30
12918;BMP180;6526;54.312;13.092;2023-05-02T03:31:51;101769.00;;;13.30
12918;BMP180;6526;54.312;13.092;2023-05-02T03:34:18;101763.00;;;13.40
12918;BMP180;6526;54.312;13.092;2023-05-02T03:36:46;101766.00;;;13.50
12918;BMP180;6526;54.312;13.092;2023-05-02T03:39:12;101777.00;;;13.50
12918;BMP180;6526;54.312;13.092;2023-05-02T03:41:38;101741.00;;;13.50
12918;BMP180;6526;54.312;13.092;2023-05-02T03:44:04;101764.00;;;13.60
12918;BMP180;6526;54.312;13.092;2023-05-02T03:46:31;101778.00;;;13.60
12918;BMP180;6526;54.312;13.092;2023-05-02T03:48:57;101736.00;;;13.60
12918;BMP180;6526;54.312;13.092;2023-05-02T03:51:23;101779.00;;;13.70
12918;BMP180;6526;54.312;13.092;2023-05-02T03:53:49;101785.00;;;13.70
12918;BMP180;6526;54.312;13.092;2023-05-02T03:56:19;101780.00;;;13.80
12918;BMP180;6526;54.312;13.092;2023-05-02T03:58:45;101780.00;;;13.80
12918;BMP180;6526;54.312;13.092;2023-05-02T04:01:15;101779.00;;;13.80
12918;BMP180;6526;54.312;13.092;2023-05-02T04:03:41;101775.00;;;13.80
12918;BMP180;6526;54.312;13.092;2023-05-02T04:06:08;101786.00;;;13.80
12918;BMP180;6526;54.312;13.092;2023-05-02T04:08:34;101798.00;;;13.90
12918;BMP180;6526;54.312;13.092;2023-05-02T04:11:00;101788.00;;;13.80
12918;BMP180;6526;54.312;13.092;2023-05-02T04:13:26;101804.00;;;13.90
12918;BMP180;6526;54.312;13.092;2023-05-02T04:15:53;101797.00;;;13.90
12918;BMP180;6526;54.312;13.092;2023-05-02T04:18:19;101797.00;;;13.80
12918;BMP180;6526;54.312;13.092;2023-05-02T04:20:45;101798.00;;;13.80
12918;BMP180;6526;54.312;13.092;2023-05-02T04:23:11;101807.00;;;13.80
12918;BMP180;6526;54.312;13.092;2023-05-02T04:25:37;101807.00;;;13.80
12918;BMP180;6526;54.312;13.092;2023-05-02T04:28:04;101816.00;;;13.80
12918;BMP180;6526;54.312;13.092;2023-05-02T04:30:30;101823.00;;;13.80
12918;BMP180;6526;54.312;13.092;2023-05-02T04:32:56;101825.00;;;13.80
12918;BMP180;6526;54.312;13.092;2023-05-02T04:35:22;101840.00;;;13.80
12918;BMP180;6526;54.312;13.092;2023-05-02T04:37:48;101839.00;;;13.80
12918;BMP180;6526;54.312;13.092;2023-05-02T04:40:15;101852.00;;;13.70
12918;BMP180;6526;54.312;13.092;2023-05-02T04:42:40;101851.00;;;13.60
12918;BMP180;6526;54.312;13.092;2023-05-02T04:45:07;101861.00;;;13.50
12918;BMP180;6526;54.312;13.092;2023-05-02T04:47:33;101871.00;;;13.50
12918;BMP180;6526;54.312;13.092;2023-05-02T04:49:59;101871.00;;;13.50
12918;BMP180;6526;54.312;13.092;2023-05-02T04:52:25;101871.00;;;13.40
12918;BMP180;6526;54.312;13.092;2023-05-02T04:54:54;101882.00;;;13.40
12918;BMP180;6526;54.312;13.092;2023-05-02T04:57:21;101891.00;;;13.30
12918;BMP180;6526;54.312;13.092;2023-05-02T04:59:47;101894.00;;;13.20
12918;BMP180;6526;54.312;13.092;2023-05-02T05:02:13;101894.00;;;13.10
12918;BMP180;6526;54.312;13.092;2023-05-02T05:04:39;101893.00;;;13.00
12918;BMP180;6526;54.312;13.092;2023-05-02T05:07:05;101906.00;;;13.00
12918;BMP180;6526;54.312;13.092;2023-05-02T05:09:32;101905.00;;;12.90
12918;BMP180;6526;54.312;13.092;2023-05-02T05:11:58;101911.00;;;12.90
12918;BMP180;6526;54.312;13.092;2023-05-02T05:14:24;101920.00;;;12.80
12918;BMP180;6526;54.312;13.092;2023-05-02T05:16:50;101915.00;;;12.80
12918;BMP180;6526;54.312;13.092;2023-05-02T05:19:16;101932.00;;;12.70
12918;BMP180;6526;54.312;13.092;2023-05-02T05:21:42;101933.00;;;12.70
12918;BMP180;6526;54.312;13.092;2023-05-02T05:24:08;101936.00;;;12.70
12918;BMP180;6526;54.312;13.092;2023-05-02T05:26:34;101935.00;;;12.70
12918;BMP180;6526;54.312;13.092;2023-05-02T05:29:00;101940.00;;;12.50
12918;BMP180;6526;54.312;13.092;2023-05-02T05:31:26;101938.00;;;12.50
12918;BMP180;6526;54.312;13.092;2023-05-02T05:33:52;101959.00;;;12.50
12918;BMP180;6526;54.312;13.092;2023-05-02T05:36:18;101951.00;;;12.60
12918;BMP180;6526;54.312;13.092;2023-05-02T05:38:44;101955.00;;;12.50
12918;BMP180;6526;54.312;13.092;2023-05-02T05:41:11;101962.00;;;12.50
12918;BMP180;6526;54.312;13.092;2023-05-02T05:43:37;101964.00;;;12.50
12918;BMP180;6526;54.312;13.092;2023-05-02T05:46:03;101976.00;;;12.40
12918;BMP180;6526;54.312;13.092;2023-05-02T05:48:29;101980.00;;;12.40
12918;BMP180;6526;54.312;13.092;2023-05-02T05:50:55;101983.00;;;12.30
12918;BMP180;6526;54.312;13.092;2023-05-02T05:53:21;101985.00;;;12.30
12918;BMP180;6526;54.312;13.092;2023-05-02T05:55:47;101982.00;;;12.30
12918;BMP180;6526;54.312;13.092;2023-05-02T05:58:13;101991.00;;;12.20
12918;BMP180;6526;54.312;13.092;2023-05-02T06:00:40;101990.00;;;12.20
12918;BMP180;6526;54.312;13.092;2023-05-02T06:03:07;101996.00;;;12.30
12918;BMP180;6526;54.312;13.092;2023-05-02T06:05:33;102009.00;;;12.30
12918;BMP180;6526;54.312;13.092;2023-05-02T06:07:59;102023.00;;;12.30
12918;BMP180;6526;54.312;13.092;2023-05-02T06:10:25;102014.00;;;12.30
12918;BMP180;6526;54.312;13.092;2023-05-02T06:12:51;102019.00;;;12.30
12918;BMP180;6526;54.312;13.092;2023-05-02T06:15:18;102018.00;;;12.30
12918;BMP180;6526;54.312;13.092;2023-05-02T06:17:44;102028.00;;;12.40
12918;BMP180;6526;54.312;13.092;2023-05-02T06:20:10;102034.00;;;12.50
12918;BMP180;6526;54.312;13.092;2023-05-02T06:22:36;102034.00;;;12.70
12918;BMP180;6526;54.312;13.092;2023-05-02T06:25:04;102043.00;;;12.70
12918;BMP180;6526;54.312;13.092;2023-05-02T06:27:31;102054.00;;;12.80
12918;BMP180;6526;54.312;13.092;2023-05-02T06:29:57;102049.00;;;12.80
12918;BMP180;6526;54.312;13.092;2023-05-02T06:32:23;102040.00;;;12.70
12918;BMP180;6526;54.312;13.092;2023-05-02T06:34:49;102052.00;;;12.80
12918;BMP180;6526;54.312;13.092;2023-05-02T06:37:15;102059.00;;;12.80
12918;BMP180;6526;54.312;13.092;2023-05-02T06:39:41;102057.00;;;12.80
12918;BMP180;6526;54.312;13.092;2023-05-02T06:42:07;102057.00;;;12.80
12918;BMP180;6526;54.312;13.092;2023-05-02T06:44:33;102079.00;;;12.90
12918;BMP180;6526;54.312;13.092;2023-05-02T06:46:59;102070.00;;;13.00
12918;BMP180;6526;54.312;13.092;2023-05-02T06:49:26;102079.00;;;13.10
12918;BMP180;6526;54.312;13.092;2023-05-02T06:51:52;102084.00;;;13.10
12918;BMP180;6526;54.312;13.092;2023-05-02T06:54:18;102094.00;;;13.00
12918;BMP180;6526;54.312;13.092;2023-05-02T06:56:44;102106.00;;;13.00
12918;BMP180;6526;54.312;13.092;2023-05-02T06:59:10;102093.00;;;12.90
12918;BMP180;6526;54.312;13.092;2023-05-02T07:01:36;102113.00;;;13.00
12918;BMP180;6526;54.312;13.092;2023-05-02T07:04:02;102104.00;;;13.00
12918;BMP180;6526;54.312;13.092;2023-05-02T07:06:30;102108.00;;;12.90
12918;BMP180;6526;54.312;13.092;2023-05-02T07:08:57;102109.00;;;12.90
12918;BMP180;6526;54.312;13.092;2023-05-02T07:11:23;102122.00;;;12.90
12918;BMP180;6526;54.312;13.092;2023-05-02T07:13:50;102119.00;;;13.00
12918;BMP180;6526;54.312;13.092;2023-05-02T07:16:16;102116.00;;;13.20
12918;BMP180;6526;54.312;13.092;2023-05-02T07:18:42;102119.00;;;13.20
12918;BMP180;6526;54.312;13.092;2023-05-02T07:21:10;102135.00;;;13.10
12918;BMP180;6526;54.312;13.092;2023-05-02T07:23:37;102141.00;;;13.00
12918;BMP180;6526;54.312;13.092;2023-05-02T07:26:03;102150.00;;;13.00
12918;BMP180;6526;54.312;13.092;2023-05-02T07:28:32;102154.00;;;13.00
12918;BMP180;6526;54.312;13.092;2023-05-02T07:30:58;102160.00;;;12.90
12918;BMP180;6526;54.312;13.092;2023-05-02T07:33:25;102167.00;;;13.00
12918;BMP180;6526;54.312;13.092;2023-05-02T07:35:51;102179.00;;;13.10
12918;BMP180;6526;54.312;13.092;2023-05-02T07:38:17;102175.00;;;13.20
12918;BMP180;6526;54.312;13.092;2023-05-02T07:40:43;102187.00;;;13.20
12918;BMP180;6526;54.312;13.092;2023-05-02T07:43:09;102187.00;;;13.10
12918;BMP180;6526;54.312;13.092;2023-05-02T07:45:35;102190.00;;;12.90
12918;BMP180;6526;54.312;13.092;2023-05-02T07:48:02;102201.00;;;12.90
12918;BMP180;6526;54.312;13.092;2023-05-02T07:50:28;102197.00;;;13.00
12918;BMP180;6526;54.312;13.092;2023-05-02T07:52:55;102194.00;;;13.00
12918;BMP180;6526;54.312;13.092;2023-05-02T07:55:21;102187.00;;;13.00
12918;BMP180;6526;54.312;13.092;2023-05-02T07:57:47;102208.00;;;13.10
12918;BMP180;6526;54.312;13.092;2023-05-02T08:00:14;102215.00;;;13.20
12918;BMP180;6526;54.312;13.092;2023-05-02T08:02:41;102210.00;;;13.10
12918;BMP180;6526;54.312;13.092;2023-05-02T08:05:07;102208.00;;;13.00
12918;BMP180;6526;54.312;13.092;2023-05-02T08:07:33;102221.00;;;13.10
12918;BMP180;6526;54.312;13.092;2023-05-02T08:10:03;102226.00;;;13.10
12918;BMP180;6526;54.312;13.092;2023-05-02T08:12:30;102235.00;;;13.10
12918;BMP180;6526;54.312;13.092;2023-05-02T08:14:56;102232.00;;;12.90
12918;BMP180;6526;54.312;13.092;2023-05-02T08:17:22;102239.00;;;13.00
12918;BMP180;6526;54.312;13.092;2023-05-02T08:19:48;102239.00;;;12.90
12918;BMP180;6526;54.312;13.092;2023-05-02T08:22:14;102241.00;;;13.00
12918;BMP180;6526;54.312;13.092;2023-05-02T08:24:40;102239.00;;;13.00
12918;BMP180;6526;54.312;13.092;2023-05-02T08:27:06;102245.00;;;13.00
12918;BMP180;6526;54.312;13.092;2023-05-02T08:29:32;102256.00;;;13.20
12918;BMP180;6526;54.312;13.092;2023-05-02T08:31:58;102253.00;;;13.40
12918;BMP180;6526;54.312;13.092;2023-05-02T08:34:24;102251.00;;;13.60
12918;BMP180;6526;54.312;13.092;2023-05-02T08:36:50;102263.00;;;13.50
12918;BMP180;6526;54.312;13.092;2023-05-02T08:39:16;102268.00;;;13.70
12918;BMP180;6526;54.312;13.092;2023-05-02T08:41:42;102257.00;;;13.90
12918;BMP180;6526;54.312;13.092;2023-05-02T08:44:10;102268.00;;;14.10
12918;BMP180;6526;54.312;13.092;2023-05-02T08:46:40;102277.00;;;14.30
12918;BMP180;6526;54.312;13.092;2023-05-02T08:49:09;102281.00;;;14.50
12918;BMP180;6526;54.312;13.092;2023-05-02T08:51:36;102289.00;;;14.60
12918;BMP180;6526;54.312;13.092;2023-05-02T08:54:03;102294.00;;;14.60
12918;BMP180;6526;54.312;13.092;2023-05-02T08:56:32;102298.00;;;14.30
12918;BMP180;6526;54.312;13.092;2023-05-02T08:58:58;102305.00;;;14.70
12918;BMP180;6526;54.312;13.092;2023-05-02T09:01:29;102310.00;;;14.70
12918;BMP180;6526;54.312;13.092;2023-05-02T09:03:55;102314.00;;;14.70
12918;BMP180;6526;54.312;13.092;2023-05-02T09:06:23;102314.00;;;14.70
12918;BMP180;6526;54.312;13.092;2023-05-02T09:08:50;102331.00;;;14.70
12918;BMP180;6526;54.312;13.092;2023-05-02T09:11:21;102324.00;;;14.70
12918;BMP180;6526;54.312;13.092;2023-05-02T09:13:48;102329.00;;;14.80
12918;BMP180;6526;54.312;13.092;2023-05-02T09:16:16;102340.00;;;14.90
12918;BMP180;6526;54.312;13.092;2023-05-02T09:18:44;102330.00;;;15.00
12918;BMP180;6526;54.312;13.092;2023-05-02T09:21:21;102339.00;;;15.20
12918;BMP180;6526;54.312;13.092;2023-05-02T09:23:48;102336.00;;;15.20
12918;BMP180;6526;54.312;13.092;2023-05-02T09:26:25;102344.00;;;15.30
12918;BMP180;6526;54.312;13.092;2023-05-02T09:28:54;102345.00;;;15.60
12918;BMP180;6526;54.312;13.092;2023-05-02T09:31:24;102350.00;;;15.60
12918;BMP180;6526;54.312;13.092;2023-05-02T09:33:51;102361.00;;;15.60
12918;BMP180;6526;54.312;13.092;2023-05-02T09:36:19;102363.00;;;15.50
12918;BMP180;6526;54.312;13.092;2023-05-02T09:38:46;102364.00;;;15.60
12918;BMP180;6526;54.312;13.092;2023-05-02T09:41:13;102366.00;;;15.70
12918;BMP180;6526;54.312;13.092;2023-05-02T09:43:39;102377.00;;;15.90
12918;BMP180;6526;54.312;13.092;2023-05-02T09:46:07;102384.00;;;15.90
12918;BMP180;6526;54.312;13.092;2023-05-02T09:48:52;102371.00;;;15.80
12918;BMP180;6526;54.312;13.092;2023-05-02T09:51:20;102387.00;;;15.70
12918;BMP180;6526;54.312;13.092;2023-05-02T09:53:46;102385.00;;;15.70
12918;BMP180;6526;54.312;13.092;2023-05-02T09:56:13;102394.00;;;15.90
12918;BMP180;6526;54.312;13.092;2023-05-02T09:58:39;102385.00;;;16.10
12918;BMP180;6526;54.312;13.092;2023-05-02T10:01:05;102388.00;;;16.10
12918;BMP180;6526;54.312;13.092;2023-05-02T10:03:31;102391.00;;;16.20
12918;BMP180;6526;54.312;13.092;2023-05-02T10:06:00;102405.00;;;16.00
12918;BMP180;6526;54.312;13.092;2023-05-02T10:08:27;102402.00;;;16.10
12918;BMP180;6526;54.312;13.092;2023-05-02T10:10:58;102407.00;;;16.10
12918;BMP180;6526;54.312;13.092;2023-05-02T10:13:26;102416.00;;;16.10
12918;BMP180;6526;54.312;13.092;2023-05-02T10:16:02;102427.00;;;16.00
12918;BMP180;6526;54.312;13.092;2023-05-02T10:19:02;102429.00;;;15.90
12918;BMP180;6526;54.312;13.092;2023-05-02T10:21:31;102432.00;;;15.90
12918;BMP180;6526;54.312;13.092;2023-05-02T10:24:00;102429.00;;;16.20
12918;BMP180;6526;54.312;13.092;2023-05-02T10:26:28;102437.00;;;16.40
12918;BMP180;6526;54.312;13.092;2023-05-02T10:28:58;102438.00;;;16.30
12918;BMP180;6526;54.312;13.092;2023-05-02T10:31:24;102429.00;;;16.30
12918;BMP180;6526;54.312;13.092;2023-05-02T10:33:51;102434.00;;;16.30
12918;BMP180;6526;54.312;13.092;2023-05-02T10:36:21;102438.00;;;16.30
12918;BMP180;6526;54.312;13.092;2023-05-02T10:38:47;102455.00;;;16.20
12918;BMP180;6526;54.312;13.092;2023-05-02T10:41:20;102445.00;;;16.10
12918;BMP180;6526;54.312;13.092;2023-05-02T10:43:49;102446.00;;;16.20
12918;BMP180;6526;54.312;13.092;2023-05-02T10:46:38;102446.00;;;16.50
12918;BMP180;6526;54.312;13.092;2023-05-02T10:49:12;102444.00;;;16.70
12918;BMP180;6526;54.312;13.092;2023-05-02T10:51:42;102455.00;;;16.80
12918;BMP180;6526;54.312;13.092;2023-05-02T10:54:26;102451.00;;;16.80
12918;BMP180;6526;54.312;13.092;2023-05-02T10:57:06;102442.00;;;16.80
12918;BMP180;6526;54.312;13.092;2023-05-02T10:59:36;102453.00;;;16.80
12918;BMP180;6526;54.312;13.092;2023-05-02T11:02:03;102464.00;;;16.80
12918;BMP180;6526;54.312;13.092;2023-05-02T11:05:01;102456.00;;;16.90
12918;BMP180;6526;54.312;13.092;2023-05-02T11:07:29;102468.00;;;17.00
12918;BMP180;6526;54.312;13.092;2023-05-02T11:18:02;102472.00;;;17.00
12918;BMP180;6526;54.312;13.092;2023-05-02T11:20:31;102470.00;;;16.90
12918;BMP180;6526;54.312;13.092;2023-05-02T11:25:44;102481.00;;;16.50
12918;BMP180;6526;54.312;13.092;2023-05-02T11:31:02;102494.00;;;16.30
12918;BMP180;6526;54.312;13.092;2023-05-02T11:33:29;102486.00;;;16.30
12918;BMP180;6526;54.312;13.092;2023-05-02T11:35:55;102491.00;;;16.50
12918;BMP180;6526;54.312;13.092;2023-05-02T11:38:25;102485.00;;;16.70
12918;BMP180;6526;54.312;13.092;2023-05-02T11:40:54;102491.00;;;16.80
12918;BMP180;6526;54.312;13.092;2023-05-02T11:43:21;102500.00;;;17.00
12918;BMP180;6526;54.312;13.092;2023-05-02T11:45:48;102486.00;;;17.20
12918;BMP180;6526;54.312;13.092;2023-05-02T11:48:17;102493.00;;;17.30
12918;BMP180;6526;54.312;13.092;2023-05-02T11:50:51;102491.00;;;17.60
12918;BMP180;6526;54.312;13.092;2023-05-02T11:53:20;102486.00;;;17.70
12918;BMP180;6526;54.312;13.092;2023-05-02T11:58:19;102497.00;;;17.90
12918;BMP180;6526;54.312;13.092;2023-05-02T12:00:46;102485.00;;;18.10
12918;BMP180;6526;54.312;13.092;2023-05-02T12:03:27;102507.00;;;18.20
12918;BMP180;6526;54.312;13.092;2023-05-02T12:05:53;102512.00;;;18.10
12918;BMP180;6526;54.312;13.092;2023-05-02T12:08:21;102507.00;;;18.00
12918;BMP180;6526;54.312;13.092;2023-05-02T12:10:49;102518.00;;;18.20
12918;BMP180;6526;54.312;13.092;2023-05-02T12:13:16;102529.00;;;18.30
12918;BMP180;6526;54.312;13.092;2023-05-02T12:15:43;102523.00;;;18.20
12918;BMP180;6526;54.312;13.092;2023-05-02T12:18:09;102531.00;;;18.30
12918;BMP180;6526;54.312;13.092;2023-05-02T12:20:36;102524.00;;;18.40
12918;BMP180;6526;54.312;13.092;2023-05-02T12:23:04;102537.00;;;18.40
12918;BMP180;6526;54.312;13.092;2023-05-02T12:25:39;102525.00;;;18.40
12918;BMP180;6526;54.312;13.092;2023-05-02T12:28:05;102524.00;;;18.50
12918;BMP180;6526;54.312;13.092;2023-05-02T12:30:32;102527.00;;;18.50
12918;BMP180;6526;54.312;13.092;2023-05-02T12:32:59;102539.00;;;18.40
12918;BMP180;6526;54.312;13.092;2023-05-02T12:35:27;102530.00;;;18.50
12918;BMP180;6526;54.312;13.092;2023-05-02T12:37:53;102550.00;;;18.40
12918;BMP180;6526;54.312;13.092;2023-05-02T12:40:21;102545.00;;;18.50
12918;BMP180;6526;54.312;13.092;2023-05-02T12:43:00;102544.00;;;18.50
12918;BMP180;6526;54.312;13.092;2023-05-02T12:45:29;102549.00;;;18.60
12918;BMP180;6526;54.312;13.092;2023-05-02T12:47:59;102544.00;;;18.60
12918;BMP180;6526;54.312;13.092;2023-05-02T12:50:39;102553.00;;;18.60
12918;BMP180;6526;54.312;13.092;2023-05-02T12:53:05;102553.00;;;18.40
12918;BMP180;6526;54.312;13.092;2023-05-02T12:55:32;102552.00;;;18.50
12918;BMP180;6526;54.312;13.092;2023-05-02T12:58:09;102556.00;;;18.60
12918;BMP180;6526;54.312;13.092;2023-05-02T13:00:40;102560.00;;;18.50
12918;BMP180;6526;54.312;13.092;2023-05-02T13:03:06;102570.00;;;18.60
12918;BMP180;6526;54.312;13.092;2023-05-02T13:05:33;102574.00;;;18.70
12918;BMP180;6526;54.312;13.092;2023-05-02T13:07:59;102574.00;;;18.60
12918;BMP180;6526;54.312;13.092;2023-05-02T13:10:25;102581.00;;;18.50
12918;BMP180;6526;54.312;13.092;2023-05-02T13:12:52;102578.00;;;18.30
12918;BMP180;6526;54.312;13.092;2023-05-02T13:15:19;102585.00;;;18.20
12918;BMP180;6526;54.312;13.092;2023-05-02T13:17:45;102595.00;;;18.00
12918;BMP180;6526;54.312;13.092;2023-05-02T13:20:12;102590.00;;;17.90
12918;BMP180;6526;54.312;13.092;2023-05-02T13:22:38;102602.00;;;17.70
12918;BMP180;6526;54.312;13.092;2023-05-02T13:25:05;102585.00;;;17.60
12918;BMP180;6526;54.312;13.092;2023-05-02T13:27:31;102594.00;;;17.40
12918;BMP180;6526;54.312;13.092;2023-05-02T13:29:59;102600.00;;;17.30
12918;BMP180;6526;54.312;13.092;2023-05-02T13:32:28;102604.00;;;17.10
12918;BMP180;6526;54.312;13.092;2023-05-02T13:34:55;102600.00;;;17.00
12918;BMP180;6526;54.312;13.092;2023-05-02T13:37:21;102598.00;;;17.20
12918;BMP180;6526;54.312;13.092;2023-05-02T13:39:48;102603.00;;;17.40
12918;BMP180;6526;54.312;13.092;2023-05-02T13:42:14;102612.00;;;17.60
12918;BMP180;6526;54.312;13.092;2023-05-02T13:44:40;102621.00;;;17.80
12918;BMP180;6526;54.312;13.092;2023-05-02T13:47:06;102612.00;;;17.50
12918;BMP180;6526;54.312;13.092;2023-05-02T13:49:32;102614.00;;;17.50
12918;BMP180;6526;54.312;13.092;2023-05-02T13:51:58;102616.00;;;17.50
12918;BMP180;6526;54.312;13.092;2023-05-02T13:54:24;102616.00;;;17.40
12918;BMP180;6526;54.312;13.092;2023-05-02T13:56:50;102623.00;;;17.40
12918;BMP180;6526;54.312;13.092;2023-05-02T13:59:16;102610.00;;;17.20
12918;BMP180;6526;54.312;13.092;2023-05-02T14:01:42;102619.00;;;17.10
12918;BMP180;6526;54.312;13.092;2023-05-02T14:04:09;102620.00;;;17.00
12918;BMP180;6526;54.312;13.092;2023-05-02T14:06:35;102609.00;;;17.00
12918;BMP180;6526;54.312;13.092;2023-05-02T14:09:01;102618.00;;;17.10
12918;BMP180;6526;54.312;13.092;2023-05-02T14:11:27;102616.00;;;17.10
12918;BMP180;6526;54.312;13.092;2023-05-02T14:13:53;102614.00;;;17.00
12918;BMP180;6526;54.312;13.092;2023-05-02T14:16:22;102619.00;;;16.80
12918;BMP180;6526;54.312;13.092;2023-05-02T14:18:48;102620.00;;;16.80
12918;BMP180;6526;54.312;13.092;2023-05-02T14:21:15;102621.00;;;16.80
12918;BMP180;6526;54.312;13.092;2023-05-02T14:23:41;102631.00;;;16.80
12918;BMP180;6526;54.312;13.092;2023-05-02T14:26:08;102624.00;;;16.80
12918;BMP180;6526;54.312;13.092;2023-05-02T14:28:34;102623.00;;;16.80